sensor_id;sensor_type;location;lat;lon;timestamp;P1;durP1;ratioP1;P2;durP2;ratioP2
23519;SDS011;11936;50.820;4.336;2024-03-25T00:01:53;5.40;;;3.38;;
23519;SDS011;11936;50.820;4.336;2024-03-25T00:04:19;3.95;;;2.88;;
23519;SDS011;11936;50.820;4.336;2024-03-25T00:06:47;5.20;;;3.10;;
23519;SDS011;11936;50.820;4.336;2024-03-25T00:09:12;5.75;;;2.70;;
23519;SDS011;11936;50.820;4.336;2024-03-25T00:11:39;4.60;;;2.45;;
23519;SDS011;11936;50.820;4.336;2024-03-25T00:14:06;4.33;;;2.93;;
23519;SDS011;11936;50.820;4.336;2024-03-25T00:16:32;3.72;;;2.78;;
23519;SDS011;11936;50.820;4.336;2024-03-25T00:18:58;5.35;;;2.70;;
23519;SDS011;11936;50.820;4.336;2024-03-25T00:21:24;8.65;;;2.65;;
23519;SDS011;11936;50.820;4.336;2024-03-25T00:23:50;6.00;;;2.90;;
23519;SDS011;11936;50.820;4.336;2024-03-25T00:26:15;4.78;;;2.65;;
23519;SDS011;11936;50.820;4.336;2024-03-25T00:28:41;6.03;;;2.60;;
23519;SDS011;11936;50.820;4.336;2024-03-25T00:31:06;5.88;;;2.95;;
23519;SDS011;11936;50.820;4.336;2024-03-25T00:33:32;5.45;;;2.60;;
23519;SDS011;11936;50.820;4.336;2024-03-25T00:35:58;7.05;;;3.28;;
23519;SDS011;11936;50.820;4.336;2024-03-25T00:38:24;6.30;;;2.95;;
23519;SDS011;11936;50.820;4.336;2024-03-25T00:40:50;5.40;;;3.13;;
23519;SDS011;11936;50.820;4.336;2024-03-25T00:43:16;5.75;;;2.75;;
23519;SDS011;11936;50.820;4.336;2024-03-25T00:45:42;3.45;;;2.78;;
23519;SDS011;11936;50.820;4.336;2024-03-25T00:48:08;6.10;;;2.90;;
23519;SDS011;11936;50.820;4.336;2024-03-25T00:50:33;4.65;;;3.10;;
23519;SDS011;11936;50.820;4.336;2024-03-25T00:52:59;12.25;;;4.15;;
23519;SDS011;11936;50.820;4.336;2024-03-25T00:55:25;7.28;;;3.03;;
23519;SDS011;11936;50.820;4.336;2024-03-25T00:57:50;4.90;;;2.40;;
23519;SDS011;11936;50.820;4.336;2024-03-25T01:00:16;5.65;;;2.80;;
23519;SDS011;11936;50.820;4.336;2024-03-25T01:02:42;6.53;;;2.80;;
23519;SDS011;11936;50.820;4.336;2024-03-25T01:05:08;7.85;;;3.72;;
23519;SDS011;11936;50.820;4.336;2024-03-25T01:07:34;4.95;;;3.03;;
23519;SDS011;11936;50.820;4.336;2024-03-25T01:10:00;8.57;;;2.65;;
23519;SDS011;11936;50.820;4.336;2024-03-25T01:12:26;8.93;;;2.78;;
23519;SDS011;11936;50.820;4.336;2024-03-25T01:14:54;6.72;;;2.83;;
23519;SDS011;11936;50.820;4.336;2024-03-25T01:17:20;10.38;;;3.00;;
23519;SDS011;11936;50.820;4.336;2024-03-25T01:19:46;8.05;;;2.75;;
23519;SDS011;11936;50.820;4.336;2024-03-25T01:22:11;4.88;;;2.67;;
23519;SDS011;11936;50.820;4.336;2024-03-25T01:24:37;5.45;;;2.95;;
23519;SDS011;11936;50.820;4.336;2024-03-25T01:27:03;7.00;;;3.47;;
23519;SDS011;11936;50.820;4.336;2024-03-25T01:29:28;6.55;;;3.05;;
23519;SDS011;11936;50.820;4.336;2024-03-25T01:31:54;11.35;;;4.15;;
23519;SDS011;11936;50.820;4.336;2024-03-25T01:34:20;8.68;;;4.35;;
23519;SDS011;11936;50.820;4.336;2024-03-25T01:36:45;5.43;;;3.10;;
23519;SDS011;11936;50.820;4.336;2024-03-25T01:39:11;11.05;;;3.53;;
23519;SDS011;11936;50.820;4.336;2024-03-25T01:41:36;11.73;;;3.78;;
23519;SDS011;11936;50.820;4.336;2024-03-25T01:44:02;8.75;;;4.15;;
23519;SDS011;11936;50.820;4.336;2024-03-25T01:46:28;7.32;;;3.70;;
23519;SDS011;11936;50.820;4.336;2024-03-25T01:48:54;9.98;;;3.83;;
23519;SDS011;11936;50.820;4.336;2024-03-25T01:51:23;9.18;;;4.20;;
23519;SDS011;11936;50.820;4.336;2024-03-25T01:53:49;12.25;;;4.50;;
23519;SDS011;11936;50.820;4.336;2024-03-25T01:56:15;8.35;;;4.38;;
23519;SDS011;11936;50.820;4.336;2024-03-25T01:58:42;8.32;;;3.63;;
23519;SDS011;11936;50.820;4.336;2024-03-25T02:01:07;11.98;;;4.38;;
23519;SDS011;11936;50.820;4.336;2024-03-25T02:03:35;8.80;;;4.60;;
23519;SDS011;11936;50.820;4.336;2024-03-25T02:06:06;14.23;;;4.57;;
23519;SDS011;11936;50.820;4.336;2024-03-25T02:08:36;11.05;;;4.45;;
23519;SDS011;11936;50.820;4.336;2024-03-25T02:11:02;10.25;;;5.22;;
23519;SDS011;11936;50.820;4.336;2024-03-25T02:13:28;12.20;;;5.28;;
23519;SDS011;11936;50.820;4.336;2024-03-25T02:15:54;16.05;;;5.00;;
23519;SDS011;11936;50.820;4.336;2024-03-25T02:18:20;9.13;;;4.82;;
23519;SDS011;11936;50.820;4.336;2024-03-25T02:20:46;14.13;;;5.43;;
23519;SDS011;11936;50.820;4.336;2024-03-25T02:23:12;10.02;;;5.15;;
23519;SDS011;11936;50.820;4.336;2024-03-25T02:25:38;17.63;;;4.78;;
23519;SDS011;11936;50.820;4.336;2024-03-25T02:28:05;12.10;;;5.25;;
23519;SDS011;11936;50.820;4.336;2024-03-25T02:30:31;16.45;;;5.57;;
23519;SDS011;11936;50.820;4.336;2024-03-25T02:32:57;13.13;;;5.10;;
23519;SDS011;11936;50.820;4.336;2024-03-25T02:35:22;13.68;;;5.85;;
23519;SDS011;11936;50.820;4.336;2024-03-25T02:37:50;14.68;;;6.90;;
23519;SDS011;11936;50.820;4.336;2024-03-25T02:40:17;12.52;;;5.70;;
23519;SDS011;11936;50.820;4.336;2024-03-25T02:42:44;18.63;;;5.57;;
23519;SDS011;11936;50.820;4.336;2024-03-25T02:45:10;14.57;;;5.35;;
23519;SDS011;11936;50.820;4.336;2024-03-25T02:47:36;14.80;;;5.88;;
23519;SDS011;11936;50.820;4.336;2024-03-25T02:50:01;11.52;;;5.65;;
23519;SDS011;11936;50.820;4.336;2024-03-25T02:52:27;19.10;;;6.07;;
23519;SDS011;11936;50.820;4.336;2024-03-25T02:54:53;13.05;;;5.82;;
23519;SDS011;11936;50.820;4.336;2024-03-25T02:57:21;13.13;;;6.22;;
23519;SDS011;11936;50.820;4.336;2024-03-25T02:59:47;18.33;;;6.57;;
23519;SDS011;11936;50.820;4.336;2024-03-25T03:02:13;12.55;;;5.40;;
23519;SDS011;11936;50.820;4.336;2024-03-25T03:04:39;18.00;;;6.03;;
23519;SDS011;11936;50.820;4.336;2024-03-25T03:07:04;18.42;;;7.03;;
23519;SDS011;11936;50.820;4.336;2024-03-25T03:09:30;20.25;;;6.93;;
23519;SDS011;11936;50.820;4.336;2024-03-25T03:11:56;20.08;;;7.15;;
23519;SDS011;11936;50.820;4.336;2024-03-25T03:14:21;18.95;;;7.03;;
23519;SDS011;11936;50.820;4.336;2024-03-25T03:16:47;17.45;;;6.78;;
23519;SDS011;11936;50.820;4.336;2024-03-25T03:19:14;18.65;;;7.68;;
23519;SDS011;11936;50.820;4.336;2024-03-25T03:21:40;21.35;;;7.82;;
23519;SDS011;11936;50.820;4.336;2024-03-25T03:24:05;19.05;;;7.30;;
23519;SDS011;11936;50.820;4.336;2024-03-25T03:26:31;22.67;;;7.05;;
23519;SDS011;11936;50.820;4.336;2024-03-25T03:28:57;16.27;;;7.22;;
23519;SDS011;11936;50.820;4.336;2024-03-25T03:31:23;19.15;;;7.88;;
23519;SDS011;11936;50.820;4.336;2024-03-25T03:33:49;26.70;;;8.88;;
23519;SDS011;11936;50.820;4.336;2024-03-25T03:36:15;17.90;;;8.32;;
23519;SDS011;11936;50.820;4.336;2024-03-25T03:38:42;19.50;;;9.18;;
23519;SDS011;11936;50.820;4.336;2024-03-25T03:41:08;21.65;;;9.43;;
23519;SDS011;11936;50.820;4.336;2024-03-25T03:43:33;26.70;;;11.73;;
23519;SDS011;11936;50.820;4.336;2024-03-25T03:45:59;25.65;;;11.23;;
23519;SDS011;11936;50.820;4.336;2024-03-25T03:48:25;20.42;;;11.20;;
23519;SDS011;11936;50.820;4.336;2024-03-25T03:50:51;28.75;;;11.23;;
23519;SDS011;11936;50.820;4.336;2024-03-25T03:53:16;25.08;;;11.27;;
23519;SDS011;11936;50.820;4.336;2024-03-25T03:55:42;29.00;;;11.63;;
23519;SDS011;11936;50.820;4.336;2024-03-25T03:58:07;27.80;;;13.00;;
23519;SDS011;11936;50.820;4.336;2024-03-25T04:00:34;23.80;;;11.57;;
23519;SDS011;11936;50.820;4.336;2024-03-25T04:03:00;24.45;;;11.45;;
23519;SDS011;11936;50.820;4.336;2024-03-25T04:05:29;24.35;;;11.63;;
23519;SDS011;11936;50.820;4.336;2024-03-25T04:07:55;26.60;;;11.90;;
23519;SDS011;11936;50.820;4.336;2024-03-25T04:10:21;32.53;;;12.68;;
23519;SDS011;11936;50.820;4.336;2024-03-25T04:12:48;33.58;;;13.75;;
23519;SDS011;11936;50.820;4.336;2024-03-25T04:15:13;27.95;;;12.02;;
23519;SDS011;11936;50.820;4.336;2024-03-25T04:17:43;26.33;;;11.02;;
23519;SDS011;11936;50.820;4.336;2024-03-25T04:20:10;26.77;;;11.85;;
23519;SDS011;11936;50.820;4.336;2024-03-25T04:22:36;25.42;;;11.98;;
23519;SDS011;11936;50.820;4.336;2024-03-25T04:25:05;37.42;;;11.25;;
23519;SDS011;11936;50.820;4.336;2024-03-25T04:27:31;26.70;;;11.70;;
23519;SDS011;11936;50.820;4.336;2024-03-25T04:29:56;25.50;;;11.38;;
23519;SDS011;11936;50.820;4.336;2024-03-25T04:32:22;26.88;;;11.52;;
23519;SDS011;11936;50.820;4.336;2024-03-25T04:34:48;23.60;;;11.68;;
23519;SDS011;11936;50.820;4.336;2024-03-25T04:37:13;20.35;;;10.55;;
23519;SDS011;11936;50.820;4.336;2024-03-25T04:39:40;31.55;;;13.32;;
23519;SDS011;11936;50.820;4.336;2024-03-25T04:42:05;28.35;;;13.57;;
23519;SDS011;11936;50.820;4.336;2024-03-25T04:44:31;28.23;;;12.98;;
23519;SDS011;11936;50.820;4.336;2024-03-25T04:46:57;30.67;;;13.63;;
23519;SDS011;11936;50.820;4.336;2024-03-25T04:49:22;21.23;;;12.75;;
23519;SDS011;11936;50.820;4.336;2024-03-25T04:51:48;28.45;;;13.20;;
23519;SDS011;11936;50.820;4.336;2024-03-25T04:54:16;32.17;;;11.73;;
23519;SDS011;11936;50.820;4.336;2024-03-25T04:56:42;28.42;;;11.50;;
23519;SDS011;11936;50.820;4.336;2024-03-25T04:59:09;24.77;;;11.25;;
23519;SDS011;11936;50.820;4.336;2024-03-25T05:01:34;27.13;;;11.82;;
23519;SDS011;11936;50.820;4.336;2024-03-25T05:04:02;33.97;;;13.10;;
23519;SDS011;11936;50.820;4.336;2024-03-25T05:06:28;26.08;;;10.73;;
23519;SDS011;11936;50.820;4.336;2024-03-25T05:08:53;22.02;;;11.35;;
23519;SDS011;11936;50.820;4.336;2024-03-25T05:11:19;23.73;;;11.65;;
23519;SDS011;11936;50.820;4.336;2024-03-25T05:13:44;25.90;;;11.35;;
23519;SDS011;11936;50.820;4.336;2024-03-25T05:16:10;31.55;;;11.93;;
23519;SDS011;11936;50.820;4.336;2024-03-25T05:18:36;32.47;;;12.40;;
23519;SDS011;11936;50.820;4.336;2024-03-25T05:21:01;26.52;;;11.98;;
23519;SDS011;11936;50.820;4.336;2024-03-25T05:23:27;27.15;;;11.45;;
23519;SDS011;11936;50.820;4.336;2024-03-25T05:25:53;23.13;;;11.82;;
23519;SDS011;11936;50.820;4.336;2024-03-25T05:28:18;29.23;;;12.95;;
23519;SDS011;11936;50.820;4.336;2024-03-25T05:30:44;30.40;;;13.82;;
23519;SDS011;11936;50.820;4.336;2024-03-25T05:33:10;28.27;;;13.20;;
23519;SDS011;11936;50.820;4.336;2024-03-25T05:35:35;35.20;;;14.13;;
23519;SDS011;11936;50.820;4.336;2024-03-25T05:38:02;33.75;;;13.55;;
23519;SDS011;11936;50.820;4.336;2024-03-25T05:40:28;35.67;;;14.38;;
23519;SDS011;11936;50.820;4.336;2024-03-25T05:42:54;36.97;;;15.25;;
23519;SDS011;11936;50.820;4.336;2024-03-25T05:45:20;30.90;;;14.38;;
23519;SDS011;11936;50.820;4.336;2024-03-25T05:47:46;36.67;;;14.02;;
23519;SDS011;11936;50.820;4.336;2024-03-25T05:50:11;33.05;;;14.25;;
23519;SDS011;11936;50.820;4.336;2024-03-25T05:52:37;35.20;;;14.18;;
23519;SDS011;11936;50.820;4.336;2024-03-25T05:55:03;31.63;;;14.23;;
23519;SDS011;11936;50.820;4.336;2024-03-25T05:57:28;36.55;;;15.63;;
23519;SDS011;11936;50.820;4.336;2024-03-25T05:59:54;28.23;;;14.13;;
23519;SDS011;11936;50.820;4.336;2024-03-25T06:02:21;32.28;;;14.02;;
23519;SDS011;11936;50.820;4.336;2024-03-25T06:04:46;29.95;;;13.25;;
23519;SDS011;11936;50.820;4.336;2024-03-25T06:07:13;30.00;;;15.18;;
23519;SDS011;11936;50.820;4.336;2024-03-25T06:09:38;32.58;;;15.15;;
23519;SDS011;11936;50.820;4.336;2024-03-25T06:12:04;36.90;;;14.50;;
23519;SDS011;11936;50.820;4.336;2024-03-25T06:14:30;32.58;;;14.25;;
23519;SDS011;11936;50.820;4.336;2024-03-25T06:16:55;38.10;;;14.00;;
23519;SDS011;11936;50.820;4.336;2024-03-25T06:19:21;24.70;;;12.77;;
23519;SDS011;11936;50.820;4.336;2024-03-25T06:21:47;25.40;;;13.50;;
23519;SDS011;11936;50.820;4.336;2024-03-25T06:24:12;29.13;;;14.45;;
23519;SDS011;11936;50.820;4.336;2024-03-25T06:26:38;32.25;;;13.73;;
23519;SDS011;11936;50.820;4.336;2024-03-25T06:29:03;25.70;;;13.30;;
23519;SDS011;11936;50.820;4.336;2024-03-25T06:31:29;31.73;;;13.73;;
23519;SDS011;11936;50.820;4.336;2024-03-25T06:34:13;30.75;;;12.25;;
23519;SDS011;11936;50.820;4.336;2024-03-25T06:36:47;29.90;;;14.35;;
23519;SDS011;11936;50.820;4.336;2024-03-25T06:39:13;34.03;;;14.00;;
23519;SDS011;11936;50.820;4.336;2024-03-25T06:41:39;33.35;;;12.75;;
23519;SDS011;11936;50.820;4.336;2024-03-25T06:44:04;29.95;;;13.95;;
23519;SDS011;11936;50.820;4.336;2024-03-25T06:46:30;26.83;;;12.73;;
23519;SDS011;11936;50.820;4.336;2024-03-25T06:48:56;28.00;;;12.70;;
23519;SDS011;11936;50.820;4.336;2024-03-25T06:51:22;22.40;;;11.43;;
23519;SDS011;11936;50.820;4.336;2024-03-25T06:53:48;29.30;;;11.23;;
23519;SDS011;11936;50.820;4.336;2024-03-25T06:56:14;25.45;;;12.20;;
23519;SDS011;11936;50.820;4.336;2024-03-25T06:58:39;25.25;;;11.15;;
23519;SDS011;11936;50.820;4.336;2024-03-25T07:01:07;25.13;;;10.65;;
23519;SDS011;11936;50.820;4.336;2024-03-25T07:03:33;27.50;;;10.18;;
23519;SDS011;11936;50.820;4.336;2024-03-25T07:06:00;21.08;;;10.45;;
23519;SDS011;11936;50.820;4.336;2024-03-25T07:08:26;24.58;;;10.65;;
23519;SDS011;11936;50.820;4.336;2024-03-25T07:10:53;23.30;;;10.30;;
23519;SDS011;11936;50.820;4.336;2024-03-25T07:13:19;28.02;;;10.18;;
23519;SDS011;11936;50.820;4.336;2024-03-25T07:15:45;27.13;;;9.30;;
23519;SDS011;11936;50.820;4.336;2024-03-25T07:18:11;14.25;;;6.93;;
23519;SDS011;11936;50.820;4.336;2024-03-25T07:20:38;23.65;;;8.38;;
23519;SDS011;11936;50.820;4.336;2024-03-25T07:23:04;22.80;;;9.98;;
23519;SDS011;11936;50.820;4.336;2024-03-25T07:25:29;16.80;;;8.10;;
23519;SDS011;11936;50.820;4.336;2024-03-25T07:27:55;21.60;;;9.07;;
23519;SDS011;11936;50.820;4.336;2024-03-25T07:30:21;21.52;;;7.72;;
23519;SDS011;11936;50.820;4.336;2024-03-25T07:32:49;27.30;;;8.68;;
23519;SDS011;11936;50.820;4.336;2024-03-25T07:35:15;20.05;;;8.02;;
23519;SDS011;11936;50.820;4.336;2024-03-25T07:37:42;23.92;;;9.05;;
23519;SDS011;11936;50.820;4.336;2024-03-25T07:40:08;18.20;;;7.82;;
23519;SDS011;11936;50.820;4.336;2024-03-25T07:42:35;23.67;;;7.93;;
23519;SDS011;11936;50.820;4.336;2024-03-25T07:45:00;17.48;;;7.57;;
23519;SDS011;11936;50.820;4.336;2024-03-25T07:47:26;20.25;;;8.23;;
23519;SDS011;11936;50.820;4.336;2024-03-25T07:49:52;22.38;;;8.50;;
23519;SDS011;11936;50.820;4.336;2024-03-25T07:52:18;26.08;;;8.82;;
23519;SDS011;11936;50.820;4.336;2024-03-25T07:54:43;16.75;;;7.10;;
23519;SDS011;11936;50.820;4.336;2024-03-25T07:57:09;18.02;;;7.90;;
23519;SDS011;11936;50.820;4.336;2024-03-25T07:59:35;16.35;;;7.60;;
23519;SDS011;11936;50.820;4.336;2024-03-25T08:02:00;22.60;;;8.32;;
23519;SDS011;11936;50.820;4.336;2024-03-25T08:04:26;17.92;;;7.65;;
23519;SDS011;11936;50.820;4.336;2024-03-25T08:06:51;20.25;;;6.97;;
23519;SDS011;11936;50.820;4.336;2024-03-25T08:09:17;14.80;;;7.63;;
23519;SDS011;11936;50.820;4.336;2024-03-25T08:11:43;18.80;;;7.40;;
23519;SDS011;11936;50.820;4.336;2024-03-25T08:14:09;18.23;;;7.82;;
23519;SDS011;11936;50.820;4.336;2024-03-25T08:16:35;19.48;;;7.35;;
23519;SDS011;11936;50.820;4.336;2024-03-25T08:19:00;23.33;;;8.95;;
23519;SDS011;11936;50.820;4.336;2024-03-25T08:21:26;15.77;;;6.45;;
23519;SDS011;11936;50.820;4.336;2024-03-25T08:23:52;20.25;;;8.38;;
23519;SDS011;11936;50.820;4.336;2024-03-25T08:26:17;18.48;;;6.32;;
23519;SDS011;11936;50.820;4.336;2024-03-25T08:28:43;21.67;;;7.47;;
23519;SDS011;11936;50.820;4.336;2024-03-25T08:31:09;18.52;;;7.90;;
23519;SDS011;11936;50.820;4.336;2024-03-25T08:33:34;21.10;;;7.18;;
23519;SDS011;11936;50.820;4.336;2024-03-25T08:36:00;18.90;;;8.23;;
23519;SDS011;11936;50.820;4.336;2024-03-25T08:38:26;18.55;;;7.22;;
23519;SDS011;11936;50.820;4.336;2024-03-25T08:40:51;17.25;;;7.97;;
23519;SDS011;11936;50.820;4.336;2024-03-25T08:43:17;24.88;;;7.57;;
23519;SDS011;11936;50.820;4.336;2024-03-25T08:45:44;15.93;;;7.18;;
23519;SDS011;11936;50.820;4.336;2024-03-25T08:48:11;17.50;;;7.00;;
23519;SDS011;11936;50.820;4.336;2024-03-25T08:50:36;19.48;;;7.65;;
23519;SDS011;11936;50.820;4.336;2024-03-25T08:53:02;21.75;;;7.65;;
23519;SDS011;11936;50.820;4.336;2024-03-25T08:55:29;15.77;;;7.40;;
23519;SDS011;11936;50.820;4.336;2024-03-25T08:57:54;14.63;;;6.72;;
23519;SDS011;11936;50.820;4.336;2024-03-25T09:00:20;18.25;;;6.95;;
23519;SDS011;11936;50.820;4.336;2024-03-25T09:02:47;12.82;;;7.13;;
23519;SDS011;11936;50.820;4.336;2024-03-25T09:05:13;18.92;;;6.70;;
23519;SDS011;11936;50.820;4.336;2024-03-25T09:07:43;17.50;;;8.07;;
23519;SDS011;11936;50.820;4.336;2024-03-25T09:10:09;13.15;;;6.60;;
23519;SDS011;11936;50.820;4.336;2024-03-25T09:12:53;16.20;;;7.43;;
23519;SDS011;11936;50.820;4.336;2024-03-25T09:15:19;20.05;;;7.32;;
23519;SDS011;11936;50.820;4.336;2024-03-25T09:17:44;15.43;;;6.57;;
23519;SDS011;11936;50.820;4.336;2024-03-25T09:20:10;17.67;;;7.03;;
23519;SDS011;11936;50.820;4.336;2024-03-25T09:22:44;22.45;;;7.25;;
23519;SDS011;11936;50.820;4.336;2024-03-25T09:27:36;14.48;;;6.72;;
23519;SDS011;11936;50.820;4.336;2024-03-25T09:30:02;16.42;;;6.22;;
23519;SDS011;11936;50.820;4.336;2024-03-25T09:32:31;14.45;;;6.03;;
23519;SDS011;11936;50.820;4.336;2024-03-25T09:34:57;13.57;;;5.95;;
23519;SDS011;11936;50.820;4.336;2024-03-25T09:37:22;21.67;;;7.15;;
23519;SDS011;11936;50.820;4.336;2024-03-25T09:39:48;16.48;;;6.35;;
23519;SDS011;11936;50.820;4.336;2024-03-25T09:42:19;17.60;;;6.35;;
23519;SDS011;11936;50.820;4.336;2024-03-25T09:44:51;19.60;;;6.63;;
23519;SDS011;11936;50.820;4.336;2024-03-25T09:47:18;17.43;;;7.00;;
23519;SDS011;11936;50.820;4.336;2024-03-25T09:49:44;16.35;;;6.75;;
23519;SDS011;11936;50.820;4.336;2024-03-25T09:52:11;21.67;;;7.30;;
23519;SDS011;11936;50.820;4.336;2024-03-25T09:54:37;19.45;;;7.50;;
23519;SDS011;11936;50.820;4.336;2024-03-25T09:57:02;21.98;;;7.47;;
23519;SDS011;11936;50.820;4.336;2024-03-25T09:59:29;16.05;;;7.00;;
23519;SDS011;11936;50.820;4.336;2024-03-25T10:01:55;16.48;;;6.22;;
23519;SDS011;11936;50.820;4.336;2024-03-25T10:04:23;14.50;;;6.88;;
23519;SDS011;11936;50.820;4.336;2024-03-25T10:06:49;13.50;;;6.68;;
23519;SDS011;11936;50.820;4.336;2024-03-25T10:09:18;15.43;;;6.10;;
23519;SDS011;11936;50.820;4.336;2024-03-25T10:11:46;17.88;;;5.85;;
23519;SDS011;11936;50.820;4.336;2024-03-25T10:14:15;14.55;;;6.55;;
23519;SDS011;11936;50.820;4.336;2024-03-25T10:16:42;20.25;;;6.32;;
23519;SDS011;11936;50.820;4.336;2024-03-25T10:19:08;13.18;;;5.82;;
23519;SDS011;11936;50.820;4.336;2024-03-25T10:21:34;9.48;;;5.13;;
23519;SDS011;11936;50.820;4.336;2024-03-25T10:24:00;12.40;;;4.50;;
23519;SDS011;11936;50.820;4.336;2024-03-25T10:26:29;18.20;;;5.50;;
23519;SDS011;11936;50.820;4.336;2024-03-25T10:29:00;11.90;;;4.45;;
23519;SDS011;11936;50.820;4.336;2024-03-25T10:31:25;15.40;;;4.63;;
23519;SDS011;11936;50.820;4.336;2024-03-25T10:33:51;14.13;;;4.47;;
23519;SDS011;11936;50.820;4.336;2024-03-25T10:36:17;7.35;;;4.18;;
23519;SDS011;11936;50.820;4.336;2024-03-25T10:38:44;23.65;;;5.22;;
23519;SDS011;11936;50.820;4.336;2024-03-25T10:41:13;15.60;;;4.22;;
23519;SDS011;11936;50.820;4.336;2024-03-25T10:43:43;6.72;;;3.97;;
23519;SDS011;11936;50.820;4.336;2024-03-25T10:46:10;5.70;;;2.92;;
23519;SDS011;11936;50.820;4.336;2024-03-25T10:48:40;10.52;;;4.53;;
23519;SDS011;11936;50.820;4.336;2024-03-25T10:53:35;9.55;;;2.95;;
23519;SDS011;11936;50.820;4.336;2024-03-25T10:56:02;11.98;;;3.78;;
23519;SDS011;11936;50.820;4.336;2024-03-25T10:58:30;12.95;;;3.30;;
23519;SDS011;11936;50.820;4.336;2024-03-25T11:00:58;10.23;;;3.70;;
23519;SDS011;11936;50.820;4.336;2024-03-25T11:03:25;6.30;;;3.72;;
23519;SDS011;11936;50.820;4.336;2024-03-25T11:05:51;9.55;;;3.55;;
23519;SDS011;11936;50.820;4.336;2024-03-25T11:08:17;14.27;;;3.53;;
23519;SDS011;11936;50.820;4.336;2024-03-25T11:10:43;8.32;;;3.40;;
23519;SDS011;11936;50.820;4.336;2024-03-25T11:13:13;10.75;;;2.90;;
23519;SDS011;11936;50.820;4.336;2024-03-25T11:15:40;11.02;;;3.17;;
23519;SDS011;11936;50.820;4.336;2024-03-25T11:18:12;6.88;;;2.50;;
23519;SDS011;11936;50.820;4.336;2024-03-25T11:20:38;8.93;;;3.08;;
23519;SDS011;11936;50.820;4.336;2024-03-25T11:23:13;10.55;;;2.80;;
23519;SDS011;11936;50.820;4.336;2024-03-25T11:25:40;10.45;;;3.10;;
23519;SDS011;11936;50.820;4.336;2024-03-25T11:28:07;8.15;;;3.00;;
23519;SDS011;11936;50.820;4.336;2024-03-25T11:30:34;6.70;;;2.73;;
23519;SDS011;11936;50.820;4.336;2024-03-25T11:33:02;12.83;;;3.37;;
23519;SDS011;11936;50.820;4.336;2024-03-25T11:35:36;9.82;;;3.03;;
23519;SDS011;11936;50.820;4.336;2024-03-25T11:38:02;14.48;;;3.20;;
23519;SDS011;11936;50.820;4.336;2024-03-25T11:40:28;11.57;;;2.35;;
23519;SDS011;11936;50.820;4.336;2024-03-25T11:42:54;11.50;;;3.58;;
23519;SDS011;11936;50.820;4.336;2024-03-25T11:45:20;8.77;;;2.35;;
23519;SDS011;11936;50.820;4.336;2024-03-25T11:47:47;5.28;;;2.22;;
23519;SDS011;11936;50.820;4.336;2024-03-25T11:50:17;6.22;;;2.40;;
23519;SDS011;11936;50.820;4.336;2024-03-25T11:52:44;4.47;;;2.28;;
23519;SDS011;11936;50.820;4.336;2024-03-25T11:55:11;9.13;;;3.33;;
23519;SDS011;11936;50.820;4.336;2024-03-25T11:57:40;8.80;;;3.58;;
23519;SDS011;11936;50.820;4.336;2024-03-25T12:00:07;7.50;;;2.25;;
23519;SDS011;11936;50.820;4.336;2024-03-25T12:02:38;7.50;;;2.55;;
23519;SDS011;11936;50.820;4.336;2024-03-25T12:05:07;5.05;;;2.13;;
23519;SDS011;11936;50.820;4.336;2024-03-25T12:07:33;4.50;;;2.17;;
23519;SDS011;11936;50.820;4.336;2024-03-25T12:10:00;9.05;;;3.17;;
23519;SDS011;11936;50.820;4.336;2024-03-25T12:12:45;10.45;;;2.55;;
23519;SDS011;11936;50.820;4.336;2024-03-25T12:15:11;5.80;;;2.83;;
23519;SDS011;11936;50.820;4.336;2024-03-25T12:17:37;3.22;;;2.45;;
23519;SDS011;11936;50.820;4.336;2024-03-25T12:20:06;9.02;;;3.00;;
23519;SDS011;11936;50.820;4.336;2024-03-25T12:22:35;10.50;;;2.88;;
23519;SDS011;11936;50.820;4.336;2024-03-25T12:25:02;3.72;;;1.90;;
23519;SDS011;11936;50.820;4.336;2024-03-25T12:27:31;6.32;;;2.20;;
23519;SDS011;11936;50.820;4.336;2024-03-25T12:30:01;3.28;;;1.85;;
23519;SDS011;11936;50.820;4.336;2024-03-25T12:35:09;7.80;;;2.25;;
23519;SDS011;11936;50.820;4.336;2024-03-25T12:37:40;6.22;;;1.92;;
23519;SDS011;11936;50.820;4.336;2024-03-25T12:40:06;6.53;;;2.28;;
23519;SDS011;11936;50.820;4.336;2024-03-25T12:42:34;6.07;;;2.55;;
23519;SDS011;11936;50.820;4.336;2024-03-25T12:45:00;5.28;;;2.20;;
23519;SDS011;11936;50.820;4.336;2024-03-25T12:47:26;3.20;;;1.58;;
23519;SDS011;11936;50.820;4.336;2024-03-25T12:49:52;5.35;;;1.60;;
23519;SDS011;11936;50.820;4.336;2024-03-25T12:52:17;8.57;;;1.65;;
23519;SDS011;11936;50.820;4.336;2024-03-25T12:54:43;5.53;;;1.83;;
23519;SDS011;11936;50.820;4.336;2024-03-25T12:57:09;5.65;;;1.65;;
23519;SDS011;11936;50.820;4.336;2024-03-25T12:59:36;4.28;;;2.53;;
23519;SDS011;11936;50.820;4.336;2024-03-25T13:02:02;3.92;;;1.65;;
23519;SDS011;11936;50.820;4.336;2024-03-25T13:04:27;4.38;;;1.75;;
23519;SDS011;11936;50.820;4.336;2024-03-25T13:06:53;5.03;;;1.85;;
23519;SDS011;11936;50.820;4.336;2024-03-25T13:09:19;7.97;;;1.70;;
23519;SDS011;11936;50.820;4.336;2024-03-25T13:11:45;5.18;;;1.67;;
23519;SDS011;11936;50.820;4.336;2024-03-25T13:14:11;4.47;;;1.95;;
23519;SDS011;11936;50.820;4.336;2024-03-25T13:16:37;4.25;;;2.28;;
23519;SDS011;11936;50.820;4.336;2024-03-25T13:19:06;4.95;;;1.95;;
23519;SDS011;11936;50.820;4.336;2024-03-25T13:21:32;5.20;;;2.40;;
23519;SDS011;11936;50.820;4.336;2024-03-25T13:23:58;7.07;;;2.25;;
23519;SDS011;11936;50.820;4.336;2024-03-25T13:26:24;12.98;;;2.92;;
23519;SDS011;11936;50.820;4.336;2024-03-25T13:28:51;4.60;;;1.60;;
23519;SDS011;11936;50.820;4.336;2024-03-25T13:31:17;5.43;;;1.50;;
23519;SDS011;11936;50.820;4.336;2024-03-25T13:33:42;6.13;;;1.85;;
23519;SDS011;11936;50.820;4.336;2024-03-25T13:36:08;4.55;;;1.67;;
23519;SDS011;11936;50.820;4.336;2024-03-25T13:38:34;5.45;;;1.58;;
23519;SDS011;11936;50.820;4.336;2024-03-25T13:41:00;5.28;;;1.70;;
23519;SDS011;11936;50.820;4.336;2024-03-25T13:43:26;4.85;;;2.45;;
23519;SDS011;11936;50.820;4.336;2024-03-25T13:45:52;4.22;;;2.13;;
23519;SDS011;11936;50.820;4.336;2024-03-25T13:48:17;5.47;;;2.22;;
23519;SDS011;11936;50.820;4.336;2024-03-25T13:50:43;8.93;;;2.40;;
23519;SDS011;11936;50.820;4.336;2024-03-25T13:53:09;4.38;;;1.80;;
23519;SDS011;11936;50.820;4.336;2024-03-25T13:55:34;5.00;;;1.75;;
23519;SDS011;11936;50.820;4.336;2024-03-25T13:58:00;6.38;;;1.80;;
23519;SDS011;11936;50.820;4.336;2024-03-25T14:00:26;5.82;;;2.10;;
23519;SDS011;11936;50.820;4.336;2024-03-25T14:02:53;2.90;;;1.75;;
23519;SDS011;11936;50.820;4.336;2024-03-25T14:05:22;7.45;;;1.88;;
23519;SDS011;11936;50.820;4.336;2024-03-25T14:07:49;5.93;;;1.58;;
23519;SDS011;11936;50.820;4.336;2024-03-25T14:10:15;5.15;;;2.25;;
23519;SDS011;11936;50.820;4.336;2024-03-25T14:12:40;5.93;;;1.95;;
23519;SDS011;11936;50.820;4.336;2024-03-25T14:15:06;16.38;;;2.15;;
23519;SDS011;11936;50.820;4.336;2024-03-25T14:17:33;6.43;;;1.88;;
23519;SDS011;11936;50.820;4.336;2024-03-25T14:19:58;13.73;;;2.55;;
23519;SDS011;11936;50.820;4.336;2024-03-25T14:22:24;7.03;;;2.17;;
23519;SDS011;11936;50.820;4.336;2024-03-25T14:24:49;2.45;;;1.60;;
23519;SDS011;11936;50.820;4.336;2024-03-25T14:27:21;4.00;;;1.92;;
23519;SDS011;11936;50.820;4.336;2024-03-25T14:29:47;9.38;;;2.10;;
23519;SDS011;11936;50.820;4.336;2024-03-25T14:32:12;3.92;;;1.98;;
23519;SDS011;11936;50.820;4.336;2024-03-25T14:34:38;5.13;;;1.75;;
23519;SDS011;11936;50.820;4.336;2024-03-25T14:37:04;4.90;;;1.85;;
23519;SDS011;11936;50.820;4.336;2024-03-25T14:39:30;4.07;;;1.60;;